Time;durP1;ratioP1;P1;durP2;ratioP2;P2;SDS_P1;SDS_P2;PMS_P1;PMS_P2;Temp;Humidity;BMP_temperature;BMP_pressure;BME280_temperature;BME280_humidity;BME280_pressure;Samples;Min_cycle;Max_cycle;Signal;HPM_P1;HPM_P2
2023/03/30 00:02:02;;;;;;;;;3.25;1.00;;;;;;;;6307281;22;45223;-85
2023/03/30 00:04:28;;;;;;;;;3.00;0.25;;;;;;;;6306326;22;45459;-84
2023/03/30 00:06:59;;;;;;;;;1.00;1.00;;;;;;;;6306896;22;46287;-87
2023/03/30 00:09:53;;;;;;;;;1.50;1.00;;;;;;;;6308406;22;45158;-86
2023/03/30 00:18:25;;;;;;;;;1.75;1.75;;;;;;;;6309144;22;45307;-86
2023/03/30 00:20:51;;;;;;;;;0.75;0.50;;;;;;;;6304918;22;45338;-86
2023/03/30 00:23:16;;;;;;;;;0.00;0.00;;;;;;;;6277229;22;45407;-86
2023/03/30 00:25:42;;;;;;;;;3.00;1.25;;;;;;;;6305235;22;45472;-85
2023/03/30 00:28:07;;;;;;;;;1.00;1.00;;;;;;;;6305389;22;45368;-85
2023/03/30 00:30:33;;;;;;;;;0.33;0.00;;;;;;;;6305232;22;45221;-86
2023/03/30 00:32:58;;;;;;;;;2.67;1.00;;;;;;;;6305006;22;45207;-85
2023/03/30 00:35:25;;;;;;;;;1.00;1.00;;;;;;;;6277315;22;45239;-85
2023/03/30 00:37:50;;;;;;;;;2.00;1.00;;;;;;;;6304173;22;47301;-86
2023/03/30 00:40:17;;;;;;;;;4.25;2.00;;;;;;;;6303270;22;45144;-85
2023/03/30 00:42:43;;;;;;;;;0.50;0.50;;;;;;;;6304891;22;45510;-85
2023/03/30 00:45:17;;;;;;;;;3.25;1.00;;;;;;;;6302818;22;45805;-86
2023/03/30 00:48:00;;;;;;;;;2.00;1.00;;;;;;;;6304219;22;45679;-86
2023/03/30 00:50:33;;;;;;;;;1.75;1.75;;;;;;;;6278923;22;45629;-85
2023/03/30 00:52:59;;;;;;;;;2.00;2.00;;;;;;;;6335449;22;45335;-85
2023/03/30 00:55:27;;;;;;;;;2.50;1.00;;;;;;;;6336598;22;45237;-85
2023/03/30 00:57:53;;;;;;;;;1.00;1.00;;;;;;;;6334783;22;48215;-85
2023/03/30 01:00:18;;;;;;;;;3.50;2.00;;;;;;;;6334208;22;45758;-86
2023/03/30 01:02:47;;;;;;;;;3.00;1.75;;;;;;;;6337142;22;45681;-85
2023/03/30 01:05:12;;;;;;;;;2.25;1.00;;;;;;;;6335862;22;45504;-85
2023/03/30 01:07:39;;;;;;;;;1.00;1.00;;;;;;;;6336481;22;46181;-85
2023/03/30 01:10:05;;;;;;;;;0.00;0.00;;;;;;;;6336151;22;45289;-85
2023/03/30 01:12:30;;;;;;;;;0.50;0.50;;;;;;;;6336891;22;45344;-85
2023/03/30 01:14:55;;;;;;;;;2.33;1.00;;;;;;;;6336207;22;45512;-85
2023/03/30 01:17:27;;;;;;;;;1.75;1.00;;;;;;;;6335880;22;46236;-86
2023/03/30 01:19:58;;;;;;;;;1.75;1.50;;;;;;;;6335844;22;45311;-86
2023/03/30 01:22:42;;;;;;;;;1.75;1.00;;;;;;;;6334818;22;45401;-86
2023/03/30 01:25:14;;;;;;;;;1.00;1.00;;;;;;;;6336063;22;45201;-86
2023/03/30 01:28:00;;;;;;;;;2.25;1.00;;;;;;;;6336301;22;47283;-85
2023/03/30 01:30:38;;;;;;;;;3.25;1.00;;;;;;;;6337124;22;45731;-86
2023/03/30 01:33:12;;;;;;;;;0.00;0.00;;;;;;;;6337429;22;45348;-85
2023/03/30 01:35:56;;;;;;;;;1.50;1.00;;;;;;;;6336787;22;45228;-86
2023/03/30 01:38:22;;;;;;;;;1.75;0.00;;;;;;;;6336934;22;46104;-84
2023/03/30 01:40:55;;;;;;;;;1.00;1.00;;;;;;;;6335887;22;45220;-84
2023/03/30 01:43:39;;;;;;;;;3.00;1.00;;;;;;;;6336085;22;45260;-85
2023/03/30 01:46:09;;;;;;;;;1.25;1.25;;;;;;;;6335898;22;45209;-85
2023/03/30 01:48:37;;;;;;;;;3.25;0.00;;;;;;;;6335503;22;46158;-85
2023/03/30 01:51:05;;;;;;;;;0.00;0.00;;;;;;;;6336255;22;45315;-85
2023/03/30 01:53:37;;;;;;;;;2.50;1.00;;;;;;;;6337455;22;45308;-85
2023/03/30 01:56:10;;;;;;;;;5.00;0.75;;;;;;;;6335938;22;45457;-85
2023/03/30 01:58:38;;;;;;;;;1.00;1.00;;;;;;;;6336117;22;46285;-85
2023/03/30 02:01:05;;;;;;;;;1.00;0.75;;;;;;;;6336809;22;45687;-85
2023/03/30 02:03:32;;;;;;;;;1.00;1.00;;;;;;;;6334156;22;45262;-85
2023/03/30 02:06:04;;;;;;;;;2.25;0.50;;;;;;;;6334443;22;45170;-84
2023/03/30 02:08:31;;;;;;;;;0.75;0.75;;;;;;;;6336506;22;46368;-84
2023/03/30 02:10:57;;;;;;;;;1.00;1.00;;;;;;;;6336049;22;45563;-85
2023/03/30 02:13:25;;;;;;;;;2.00;1.00;;;;;;;;6336579;22;45435;-85
2023/03/30 02:15:52;;;;;;;;;0.75;0.75;;;;;;;;6336070;22;45409;-85
2023/03/30 02:18:20;;;;;;;;;3.00;1.00;;;;;;;;6336724;22;46320;-84
2023/03/30 02:20:46;;;;;;;;;2.00;1.00;;;;;;;;6337258;22;45150;-85
2023/03/30 02:23:13;;;;;;;;;0.25;0.25;;;;;;;;6338008;22;45428;-85
2023/03/30 02:25:39;;;;;;;;;2.00;0.50;;;;;;;;6335058;22;45476;-85
2023/03/30 02:28:06;;;;;;;;;2.00;0.00;;;;;;;;6336763;22;46063;-85
2023/03/30 02:30:37;;;;;;;;;2.25;1.00;;;;;;;;6335884;22;45292;-85
2023/03/30 02:33:03;;;;;;;;;2.25;0.75;;;;;;;;6334256;22;45314;-85
2023/03/30 02:35:47;;;;;;;;;1.75;1.00;;;;;;;;6335126;22;45305;-85
2023/03/30 02:38:40;;;;;;;;;2.25;0.00;;;;;;;;6336629;22;45574;-84
2023/03/30 02:41:12;;;;;;;;;0.25;0.25;;;;;;;;6334407;22;45795;-85
2023/03/30 02:43:37;;;;;;;;;0.50;0.00;;;;;;;;6336216;22;45360;-84
2023/03/30 02:46:02;;;;;;;;;0.50;0.50;;;;;;;;6335103;22;45530;-85
2023/03/30 02:48:28;;;;;;;;;1.00;0.00;;;;;;;;6333159;22;46917;-84
2023/03/30 02:50:53;;;;;;;;;0.00;0.00;;;;;;;;6336558;22;45273;-85
2023/03/30 02:53:27;;;;;;;;;2.67;1.00;;;;;;;;6336232;22;45226;-85
2023/03/30 02:56:06;;;;;;;;;1.00;0.00;;;;;;;;6336363;22;45684;-85
2023/03/30 02:58:58;;;;;;;;;0.00;0.00;;;;;;;;6336144;22;45592;-84
2023/03/30 03:01:39;;;;;;;;;0.50;0.50;;;;;;;;6326255;22;45273;-84
2023/03/30 03:04:05;;;;;;;;;0.75;0.00;;;;;;;;6336336;22;45297;-84
2023/03/30 03:06:33;;;;;;;;;2.25;0.00;;;;;;;;6335880;22;45406;-84
2023/03/30 03:08:58;;;;;;;;;1.00;0.75;;;;;;;;6335457;22;45568;-84
2023/03/30 03:11:24;;;;;;;;;2.00;0.00;;;;;;;;6336187;22;45196;-84
2023/03/30 03:13:50;;;;;;;;;0.50;0.00;;;;;;;;6335648;22;45363;-84
2023/03/30 03:16:16;;;;;;;;;0.00;0.00;;;;;;;;6333743;22;45412;-85
2023/03/30 03:18:41;;;;;;;;;1.00;1.00;;;;;;;;6335585;22;45350;-84
2023/03/30 03:21:07;;;;;;;;;1.00;0.50;;;;;;;;6336117;22;45226;-84
2023/03/30 03:23:33;;;;;;;;;2.00;1.00;;;;;;;;6336201;22;45328;-84
2023/03/30 03:25:59;;;;;;;;;0.00;0.00;;;;;;;;6335439;22;45342;-84
2023/03/30 03:28:24;;;;;;;;;0.00;0.00;;;;;;;;6333752;22;46956;-84
2023/03/30 03:30:49;;;;;;;;;3.00;1.00;;;;;;;;6335253;22;45303;-84
2023/03/30 03:33:14;;;;;;;;;0.00;0.00;;;;;;;;6335940;22;45415;-85
2023/03/30 03:35:44;;;;;;;;;1.25;1.00;;;;;;;;6335860;22;45242;-84
2023/03/30 03:38:09;;;;;;;;;0.25;0.25;;;;;;;;6333591;22;46422;-84
2023/03/30 03:40:34;;;;;;;;;0.00;0.00;;;;;;;;6335786;22;45259;-84
2023/03/30 03:43:00;;;;;;;;;2.00;0.67;;;;;;;;6335894;22;45252;-85
2023/03/30 03:45:25;;;;;;;;;0.00;0.00;;;;;;;;6335136;22;45213;-85
2023/03/30 03:47:50;;;;;;;;;2.00;0.50;;;;;;;;6335758;22;45461;-84
2023/03/30 03:50:15;;;;;;;;;1.00;1.00;;;;;;;;6335661;22;45241;-85
2023/03/30 03:52:41;;;;;;;;;0.00;0.00;;;;;;;;6335669;22;45216;-84
2023/03/30 03:55:06;;;;;;;;;2.67;0.67;;;;;;;;6336902;22;45237;-84
2023/03/30 03:57:31;;;;;;;;;1.00;1.00;;;;;;;;6333759;22;47090;-83
2023/03/30 03:59:58;;;;;;;;;1.00;1.00;;;;;;;;6335228;22;45222;-83
2023/03/30 04:02:23;;;;;;;;;1.00;1.00;;;;;;;;6336852;22;45490;-83
2023/03/30 04:04:50;;;;;;;;;1.00;0.00;;;;;;;;6337042;22;45286;-84
2023/03/30 04:07:15;;;;;;;;;1.00;1.00;;;;;;;;6337084;22;46469;-84
2023/03/30 04:09:40;;;;;;;;;1.33;0.00;;;;;;;;6336632;22;45504;-83
2023/03/30 04:12:05;;;;;;;;;1.00;1.00;;;;;;;;6336550;22;45325;-83
2023/03/30 04:14:32;;;;;;;;;1.33;0.00;;;;;;;;6336897;22;45299;-84
2023/03/30 04:16:57;;;;;;;;;1.25;0.00;;;;;;;;6336472;22;46512;-84
2023/03/30 04:19:24;;;;;;;;;0.33;0.33;;;;;;;;6336921;22;45307;-84
2023/03/30 04:21:49;;;;;;;;;2.00;0.00;;;;;;;;6336609;22;45194;-84
2023/03/30 04:24:14;;;;;;;;;2.00;0.67;;;;;;;;6337479;22;45363;-84
2023/03/30 04:26:40;;;;;;;;;1.67;0.00;;;;;;;;6336112;22;47049;-84
2023/03/30 04:29:06;;;;;;;;;0.00;0.00;;;;;;;;6335831;22;45852;-85
2023/03/30 04:31:34;;;;;;;;;3.00;0.00;;;;;;;;6337423;22;45269;-84
2023/03/30 04:34:01;;;;;;;;;0.00;0.00;;;;;;;;6336520;22;45312;-85
2023/03/30 04:36:27;;;;;;;;;2.00;0.00;;;;;;;;6336452;22;45443;-85
2023/03/30 04:39:02;;;;;;;;;1.50;1.00;;;;;;;;6336656;22;45314;-85
2023/03/30 04:41:34;;;;;;;;;2.50;0.75;;;;;;;;6336280;22;45240;-85
2023/03/30 04:44:01;;;;;;;;;0.00;0.00;;;;;;;;6334227;22;45478;-85
2023/03/30 04:46:26;;;;;;;;;1.25;1.25;;;;;;;;6334493;22;48597;-84
2023/03/30 04:48:52;;;;;;;;;1.00;1.00;;;;;;;;6336485;22;45382;-84
2023/03/30 04:51:17;;;;;;;;;1.67;0.00;;;;;;;;6337008;22;45297;-84
2023/03/30 04:53:42;;;;;;;;;0.33;0.33;;;;;;;;6336225;22;45315;-84
2023/03/30 04:56:07;;;;;;;;;1.00;1.00;;;;;;;;6336795;22;45336;-85
2023/03/30 04:58:32;;;;;;;;;2.33;1.33;;;;;;;;6335601;22;45273;-84
2023/03/30 05:00:58;;;;;;;;;1.00;1.00;;;;;;;;6337056;22;45225;-85
2023/03/30 05:03:23;;;;;;;;;1.00;1.00;;;;;;;;6336530;22;45324;-85
2023/03/30 05:05:48;;;;;;;;;0.00;0.00;;;;;;;;6335913;22;45337;-85
2023/03/30 05:08:13;;;;;;;;;1.00;1.00;;;;;;;;6336085;22;45234;-84
2023/03/30 05:10:39;;;;;;;;;1.33;0.00;;;;;;;;6336527;22;45290;-84
2023/03/30 05:13:04;;;;;;;;;2.00;1.00;;;;;;;;6336725;22;45370;-84
2023/03/30 05:15:29;;;;;;;;;0.67;0.00;;;;;;;;6335909;22;46295;-84
2023/03/30 05:17:55;;;;;;;;;2.00;0.00;;;;;;;;6336537;22;45427;-85
2023/03/30 05:20:20;;;;;;;;;1.50;1.00;;;;;;;;6336349;22;45185;-84
2023/03/30 05:22:46;;;;;;;;;2.00;0.33;;;;;;;;6336284;22;45272;-84
2023/03/30 05:25:11;;;;;;;;;4.50;1.00;;;;;;;;6334318;22;47215;-84
2023/03/30 05:27:37;;;;;;;;;0.00;0.00;;;;;;;;6334401;22;45304;-84
2023/03/30 05:30:02;;;;;;;;;2.00;1.00;;;;;;;;6336956;22;45390;-85
2023/03/30 05:32:28;;;;;;;;;0.75;0.00;;;;;;;;6337325;22;45405;-85
2023/03/30 05:34:53;;;;;;;;;0.33;0.33;;;;;;;;6337281;22;46957;-88
2023/03/30 05:37:28;;;;;;;;;;;;;;;;;;;;;
2023/03/30 05:39:54;;;;;;;;;0.25;0.25;;;;;;;;6336952;22;68524;-86
2023/03/30 05:42:19;;;;;;;;;0.00;0.00;;;;;;;;6336037;22;45315;-86
2023/03/30 05:44:44;;;;;;;;;2.00;1.00;;;;;;;;6335006;22;47964;-89
2023/03/30 05:47:09;;;;;;;;;0.00;0.00;;;;;;;;6337108;22;45299;-86
2023/03/30 05:49:35;;;;;;;;;1.00;0.00;;;;;;;;6336334;22;45312;-90
2023/03/30 05:52:00;;;;;;;;;3.25;1.00;;;;;;;;6337388;22;45330;-87
2023/03/30 05:54:26;;;;;;;;;2.00;1.00;;;;;;;;6336721;22;47579;-84
2023/03/30 05:56:52;;;;;;;;;1.50;1.00;;;;;;;;6336337;22;45284;-89
2023/03/30 05:59:18;;;;;;;;;3.00;1.00;;;;;;;;6335904;22;45206;-85
2023/03/30 06:01:44;;;;;;;;;2.25;0.75;;;;;;;;6337114;22;45313;-88
2023/03/30 06:04:10;;;;;;;;;3.00;1.00;;;;;;;;6336975;22;45237;-89
2023/03/30 06:06:35;;;;;;;;;0.25;0.00;;;;;;;;6337731;22;45402;-90
2023/03/30 06:09:01;;;;;;;;;5.67;0.33;;;;;;;;6336500;22;45294;-93
2023/03/30 06:11:27;;;;;;;;;4.00;1.00;;;;;;;;6336037;22;45744;-86
2023/03/30 06:13:52;;;;;;;;;2.00;0.00;;;;;;;;6337918;22;46297;-87
2023/03/30 06:16:17;;;;;;;;;0.50;0.50;;;;;;;;6337414;22;45209;-86
2023/03/30 06:18:43;;;;;;;;;1.00;0.00;;;;;;;;6335867;22;45435;-88
2023/03/30 06:21:08;;;;;;;;;0.00;0.00;;;;;;;;6337703;22;45154;-88
2023/03/30 06:23:34;;;;;;;;;5.00;1.00;;;;;;;;6337066;22;47236;-86
2023/03/30 06:26:00;;;;;;;;;3.00;1.25;;;;;;;;6337122;22;45434;-87
2023/03/30 06:28:26;;;;;;;;;0.50;0.00;;;;;;;;6337185;22;45414;-88
2023/03/30 06:30:51;;;;;;;;;1.50;1.00;;;;;;;;6338068;22;45321;-88
2023/03/30 06:33:17;;;;;;;;;1.67;1.33;;;;;;;;6336443;22;46804;-87
2023/03/30 06:35:53;;;;;;;;;1.75;1.25;;;;;;;;6336668;22;45328;-87
2023/03/30 06:38:19;;;;;;;;;1.00;1.00;;;;;;;;6337180;22;45213;-87
2023/03/30 06:40:50;;;;;;;;;2.00;1.00;;;;;;;;6335073;22;45286;-91
2023/03/30 06:43:17;;;;;;;;;7.00;1.25;;;;;;;;6336242;22;46232;-87
2023/03/30 06:45:43;;;;;;;;;1.00;1.00;;;;;;;;6335043;22;45538;-89
2023/03/30 06:48:08;;;;;;;;;0.75;0.50;;;;;;;;6337145;22;45253;-88
2023/03/30 06:50:33;;;;;;;;;2.00;2.00;;;;;;;;6337127;22;45323;-89
2023/03/30 06:52:59;;;;;;;;;3.75;2.00;;;;;;;;6334478;22;47189;-87
2023/03/30 06:55:24;;;;;;;;;4.00;2.00;;;;;;;;6335009;22;45469;-89
2023/03/30 06:57:49;;;;;;;;;1.25;0.75;;;;;;;;6337310;22;45211;-86
2023/03/30 07:00:15;;;;;;;;;2.33;1.00;;;;;;;;6336769;22;45244;-87
2023/03/30 07:02:40;;;;;;;;;1.00;1.00;;;;;;;;6333868;22;48408;-85
2023/03/30 07:05:06;;;;;;;;;3.00;1.00;;;;;;;;6334499;22;46007;-85
2023/03/30 07:07:32;;;;;;;;;3.00;1.00;;;;;;;;6335682;22;45232;-85
2023/03/30 07:09:57;;;;;;;;;4.00;2.00;;;;;;;;6337358;22;45379;-89
2023/03/30 07:12:22;;;;;;;;;1.33;1.00;;;;;;;;6337055;22;45380;-90
2023/03/30 07:14:48;;;;;;;;;2.00;0.00;;;;;;;;6334633;22;45244;-86
2023/03/30 07:17:26;;;;;;;;;1.00;1.00;;;;;;;;6335288;22;45372;-88
2023/03/30 07:19:51;;;;;;;;;0.00;0.00;;;;;;;;6337868;22;45521;-86
2023/03/30 07:22:16;;;;;;;;;1.00;0.00;;;;;;;;6334106;22;48119;-84
2023/03/30 07:24:45;;;;;;;;;2.50;1.00;;;;;;;;6335076;22;45735;-86
2023/03/30 07:27:10;;;;;;;;;1.00;1.00;;;;;;;;6331287;22;45336;-84
2023/03/30 07:29:35;;;;;;;;;1.00;0.25;;;;;;;;6335405;22;45380;-83
2023/03/30 07:32:04;;;;;;;;;0.25;0.25;;;;;;;;6335156;22;46278;-86
2023/03/30 07:34:30;;;;;;;;;1.00;1.00;;;;;;;;6333892;22;45747;-84
2023/03/30 07:36:55;;;;;;;;;5.50;1.00;;;;;;;;6334452;22;45356;-84
2023/03/30 07:39:20;;;;;;;;;2.00;1.00;;;;;;;;6336638;22;45452;-85
2023/03/30 07:41:46;;;;;;;;;2.00;1.00;;;;;;;;6334482;22;46501;-85
2023/03/30 07:44:11;;;;;;;;;2.00;0.33;;;;;;;;6336673;22;45623;-86
2023/03/30 07:46:36;;;;;;;;;5.67;1.00;;;;;;;;6337967;22;45610;-86
2023/03/30 07:49:01;;;;;;;;;0.33;0.00;;;;;;;;6335286;22;45350;-87
2023/03/30 07:51:27;;;;;;;;;1.00;1.00;;;;;;;;6335945;22;45373;-86
2023/03/30 07:53:52;;;;;;;;;2.00;0.00;;;;;;;;6337543;22;45291;-85
2023/03/30 07:56:17;;;;;;;;;4.67;2.00;;;;;;;;6333965;22;45418;-86
2023/03/30 07:58:43;;;;;;;;;1.00;0.00;;;;;;;;6335223;22;45264;-86
2023/03/30 08:01:12;;;;;;;;;2.25;1.00;;;;;;;;6336364;22;46532;-86
2023/03/30 08:03:37;;;;;;;;;2.50;1.00;;;;;;;;6335969;22;45241;-84
2023/03/30 08:06:04;;;;;;;;;2.00;1.00;;;;;;;;6333987;22;45316;-84
2023/03/30 08:08:30;;;;;;;;;4.00;1.50;;;;;;;;6336758;22;45445;-84
2023/03/30 08:10:55;;;;;;;;;1.50;1.50;;;;;;;;6335156;22;46358;-84
2023/03/30 08:13:21;;;;;;;;;0.75;0.25;;;;;;;;6335444;22;45496;-84
2023/03/30 08:15:46;;;;;;;;;2.00;1.25;;;;;;;;6334557;22;45317;-85
2023/03/30 08:18:12;;;;;;;;;2.33;0.33;;;;;;;;6330825;22;45372;-85
2023/03/30 08:20:39;;;;;;;;;3.00;0.00;;;;;;;;6329982;22;47007;-83
2023/03/30 08:23:05;;;;;;;;;1.50;1.00;;;;;;;;6329474;22;45752;-85
2023/03/30 08:25:30;;;;;;;;;1.00;0.00;;;;;;;;6335189;22;45274;-84
2023/03/30 08:27:55;;;;;;;;;1.33;0.00;;;;;;;;6337140;22;45177;-85
2023/03/30 08:30:20;;;;;;;;;1.33;0.33;;;;;;;;6335781;22;46573;-85
2023/03/30 08:32:46;;;;;;;;;3.25;1.00;;;;;;;;6334219;22;45269;-87
2023/03/30 08:35:12;;;;;;;;;0.25;0.00;;;;;;;;6336543;22;45384;-86
2023/03/30 08:37:38;;;;;;;;;2.00;0.75;;;;;;;;6335754;22;45461;-86
2023/03/30 08:40:05;;;;;;;;;2.75;0.50;;;;;;;;6334284;22;47005;-85
2023/03/30 08:42:37;;;;;;;;;0.50;0.00;;;;;;;;6334641;22;45568;-86
2023/03/30 08:45:04;;;;;;;;;1.50;0.00;;;;;;;;6335792;22;45500;-86
2023/03/30 08:47:33;;;;;;;;;3.00;0.00;;;;;;;;6334365;22;45519;-86
2023/03/30 08:50:07;;;;;;;;;3.00;1.00;;;;;;;;6335364;22;45390;-85
2023/03/30 08:52:33;;;;;;;;;1.75;0.00;;;;;;;;6334424;22;45332;-85
2023/03/30 08:54:58;;;;;;;;;3.50;1.00;;;;;;;;6333561;22;45587;-83
2023/03/30 08:57:27;;;;;;;;;2.50;1.00;;;;;;;;6336004;22;45212;-87
2023/03/30 09:00:07;;;;;;;;;3.75;0.00;;;;;;;;6335607;22;46580;-85
2023/03/30 09:02:41;;;;;;;;;1.25;1.00;;;;;;;;6335387;22;45276;-85
2023/03/30 09:05:13;;;;;;;;;2.25;0.75;;;;;;;;6334787;22;45344;-84
2023/03/30 09:07:50;;;;;;;;;0.00;0.00;;;;;;;;6335802;22;45385;-85
2023/03/30 09:10:15;;;;;;;;;0.50;0.50;;;;;;;;6335761;22;45286;-85
2023/03/30 09:12:40;;;;;;;;;3.00;1.00;;;;;;;;6334921;22;45363;-85
2023/03/30 09:15:05;;;;;;;;;4.00;0.00;;;;;;;;6335590;22;45601;-84
2023/03/30 09:17:33;;;;;;;;;1.00;1.00;;;;;;;;6333764;22;45589;-84
2023/03/30 09:20:11;;;;;;;;;0.75;0.75;;;;;;;;6334118;22;45612;-86
2023/03/30 09:22:38;;;;;;;;;0.50;0.50;;;;;;;;6335269;22;45169;-84
2023/03/30 09:25:32;;;;;;;;;0.00;0.00;;;;;;;;6335021;22;45295;-85
2023/03/30 09:27:57;;;;;;;;;2.00;0.50;;;;;;;;6208027;22;45486;-85
2023/03/30 09:30:31;;;;;;;;;1.00;0.67;;;;;;;;6208407;22;46029;-85
2023/03/30 09:32:58;;;;;;;;;2.50;1.00;;;;;;;;6207801;22;45261;-84
2023/03/30 09:35:27;;;;;;;;;0.25;0.00;;;;;;;;6208656;22;45471;-84
2023/03/30 09:37:53;;;;;;;;;0.75;0.50;;;;;;;;6183159;22;45490;-85
2023/03/30 09:40:18;;;;;;;;;1.00;0.00;;;;;;;;6208661;22;45480;-85
2023/03/30 09:42:52;;;;;;;;;3.25;0.25;;;;;;;;6209037;22;45329;-85
2023/03/30 09:45:26;;;;;;;;;1.25;0.00;;;;;;;;6182849;22;45705;-83
2023/03/30 09:47:51;;;;;;;;;3.25;0.00;;;;;;;;6207850;22;45721;-84
2023/03/30 09:50:23;;;;;;;;;0.67;0.00;;;;;;;;6207477;22;45758;-84
2023/03/30 09:52:57;;;;;;;;;2.00;0.25;;;;;;;;6208991;22;45434;-85
2023/03/30 09:55:24;;;;;;;;;5.00;0.25;;;;;;;;6209077;22;45392;-84
2023/03/30 09:57:51;;;;;;;;;2.00;0.00;;;;;;;;6183310;22;45480;-85
2023/03/30 10:00:24;;;;;;;;;2.00;0.00;;;;;;;;6183575;22;47527;-85
2023/03/30 10:03:21;;;;;;;;;1.75;0.00;;;;;;;;6183736;22;45593;-90
2023/03/30 10:05:58;;;;;;;;;14.25;8.50;;;;;;;;6239564;22;45457;-86
2023/03/30 10:08:24;;;;;;;;;2.00;1.00;;;;;;;;6238965;22;45477;-86
2023/03/30 10:10:55;;;;;;;;;5.75;1.00;;;;;;;;6238886;22;45523;-85
2023/03/30 10:13:25;;;;;;;;;0.75;0.00;;;;;;;;6238670;22;45543;-85
2023/03/30 10:15:52;;;;;;;;;2.75;1.00;;;;;;;;6239989;22;45207;-86
2023/03/30 10:18:25;;;;;;;;;2.50;1.25;;;;;;;;6239420;22;45451;-85
2023/03/30 10:20:52;;;;;;;;;1.00;1.00;;;;;;;;6239272;22;46416;-85
2023/03/30 10:23:18;;;;;;;;;1.00;1.00;;;;;;;;6239057;22;45617;-85
2023/03/30 10:25:45;;;;;;;;;2.00;1.00;;;;;;;;6239412;22;45183;-85
2023/03/30 10:28:20;;;;;;;;;2.00;0.00;;;;;;;;6238864;22;45776;-85
2023/03/30 10:30:49;;;;;;;;;2.75;0.75;;;;;;;;6238015;22;46292;-84
2023/03/30 10:33:15;;;;;;;;;2.50;1.50;;;;;;;;6239274;22;45287;-84
2023/03/30 10:35:40;;;;;;;;;4.00;0.00;;;;;;;;6239363;22;45287;-85
2023/03/30 10:38:06;;;;;;;;;1.25;0.50;;;;;;;;6239357;22;45251;-85
2023/03/30 10:40:36;;;;;;;;;6.00;1.00;;;;;;;;6238691;22;46879;-85
2023/03/30 10:43:02;;;;;;;;;2.00;2.00;;;;;;;;6308943;22;45730;-84
2023/03/30 10:45:31;;;;;;;;;3.25;0.75;;;;;;;;6332325;22;45386;-83
2023/03/30 10:47:56;;;;;;;;;0.00;0.00;;;;;;;;6331339;22;45596;-86
2023/03/30 10:50:25;;;;;;;;;2.00;0.00;;;;;;;;6333121;22;47798;-85
2023/03/30 10:53:03;;;;;;;;;2.00;0.00;;;;;;;;6335929;22;45591;-86
2023/03/30 10:55:41;;;;;;;;;1.50;1.00;;;;;;;;6334975;22;45562;-86
2023/03/30 10:58:18;;;;;;;;;1.00;0.00;;;;;;;;6335752;22;45170;-84
2023/03/30 11:00:53;;;;;;;;;1.00;0.75;;;;;;;;6333588;22;47952;-87
2023/03/30 11:03:23;;;;;;;;;1.00;1.00;;;;;;;;6337591;22;45494;-86
2023/03/30 11:05:50;;;;;;;;;2.50;0.75;;;;;;;;6337564;22;45311;-86
2023/03/30 11:08:21;;;;;;;;;2.25;0.00;;;;;;;;6337625;22;45450;-87
2023/03/30 11:10:47;;;;;;;;;2.00;1.00;;;;;;;;6349233;22;46013;-90
2023/03/30 11:13:15;;;;;;;;;3.00;0.00;;;;;;;;6331605;22;45232;-87
2023/03/30 11:15:48;;;;;;;;;1.50;1.00;;;;;;;;6358293;22;45230;-87
2023/03/30 11:18:29;;;;;;;;;2.50;0.00;;;;;;;;6359953;22;44691;-88
2023/03/30 11:21:14;;;;;;;;;1.00;1.00;;;;;;;;6354950;22;46304;-87
2023/03/30 11:23:55;;;;;;;;;0.25;0.25;;;;;;;;6345671;22;45368;-85
2023/03/30 11:26:38;;;;;;;;;2.00;0.00;;;;;;;;6335505;22;45224;-85
2023/03/30 11:29:03;;;;;;;;;3.25;0.00;;;;;;;;6336458;22;45399;-89
2023/03/30 11:31:34;;;;;;;;;1.33;0.00;;;;;;;;6336891;22;46207;-89
2023/03/30 11:34:04;;;;;;;;;0.00;0.00;;;;;;;;6334850;22;45642;-89
2023/03/30 11:36:33;;;;;;;;;2.00;0.50;;;;;;;;6336621;22;45203;-87
2023/03/30 11:39:03;;;;;;;;;0.00;0.00;;;;;;;;6337159;22;45591;-87
2023/03/30 11:41:34;;;;;;;;;3.00;0.75;;;;;;;;6336122;22;46195;-90
2023/03/30 11:44:00;;;;;;;;;2.00;1.00;;;;;;;;6336044;22;45538;-87
2023/03/30 11:46:29;;;;;;;;;0.75;0.75;;;;;;;;6335713;22;45276;-87
2023/03/30 11:49:03;;;;;;;;;1.00;1.00;;;;;;;;6334596;22;45297;-86
2023/03/30 11:51:55;;;;;;;;;1.75;0.00;;;;;;;;6335514;22;45436;-85
2023/03/30 11:54:38;;;;;;;;;1.00;1.00;;;;;;;;6334809;22;45547;-86
2023/03/30 11:57:12;;;;;;;;;0.00;0.00;;;;;;;;6335749;22;45331;-91
2023/03/30 11:59:41;;;;;;;;;0.25;0.25;;;;;;;;6333234;22;45551;-87
2023/03/30 12:02:12;;;;;;;;;2.25;0.00;;;;;;;;6333396;22;48117;-87
2023/03/30 12:04:40;;;;;;;;;1.00;0.25;;;;;;;;6333260;22;45688;-86
2023/03/30 12:07:08;;;;;;;;;1.00;0.00;;;;;;;;6333625;22;45596;-87
2023/03/30 12:09:33;;;;;;;;;0.00;0.00;;;;;;;;6335388;22;45339;-87
2023/03/30 12:12:16;;;;;;;;;0.00;0.00;;;;;;;;6333408;22;48091;-86
2023/03/30 12:14:42;;;;;;;;;0.00;0.00;;;;;;;;6333335;22;45505;-87
2023/03/30 12:17:27;;;;;;;;;1.25;0.75;;;;;;;;6336044;22;45643;-89
2023/03/30 12:20:05;;;;;;;;;0.00;0.00;;;;;;;;6312954;22;45406;-90
2023/03/30 12:22:35;;;;;;;;;0.00;0.00;;;;;;;;6334485;22;47266;-86
2023/03/30 12:25:14;;;;;;;;;0.25;0.00;;;;;;;;6336754;22;45265;-87
2023/03/30 12:28:00;;;;;;;;;0.75;0.75;;;;;;;;6336596;22;45358;-87
2023/03/30 12:30:30;;;;;;;;;2.75;0.00;;;;;;;;6307169;22;45250;-87
2023/03/30 12:33:00;;;;;;;;;0.00;0.00;;;;;;;;6336179;22;47087;-85
2023/03/30 12:35:50;;;;;;;;;0.50;0.00;;;;;;;;6335950;22;45420;-85
2023/03/30 12:38:15;;;;;;;;;2.75;0.50;;;;;;;;6336888;22;45322;-86
2023/03/30 12:40:47;;;;;;;;;2.25;0.25;;;;;;;;6336070;22;45182;-86
2023/03/30 12:43:17;;;;;;;;;3.00;0.50;;;;;;;;6333703;22;48126;-85
2023/03/30 12:46:00;;;;;;;;;2.00;0.50;;;;;;;;6334337;22;45598;-86
2023/03/30 12:48:46;;;;;;;;;2.00;1.00;;;;;;;;6336510;22;45431;-87
2023/03/30 12:51:35;;;;;;;;;1.25;1.00;;;;;;;;6336180;22;45300;-86
2023/03/30 12:54:19;;;;;;;;;2.50;0.75;;;;;;;;6336453;22;45315;-85
2023/03/30 12:57:13;;;;;;;;;1.75;0.00;;;;;;;;6335698;22;45631;-86
2023/03/30 12:59:44;;;;;;;;;0.25;0.25;;;;;;;;6309398;22;45327;-86
2023/03/30 13:02:28;;;;;;;;;3.25;1.00;;;;;;;;6336067;22;45333;-85
2023/03/30 13:04:54;;;;;;;;;4.00;1.00;;;;;;;;6335689;22;45474;-86
2023/03/30 13:07:25;;;;;;;;;1.00;0.00;;;;;;;;6336213;22;45812;-87
2023/03/30 13:09:55;;;;;;;;;5.00;1.00;;;;;;;;6336274;22;45493;-85
2023/03/30 13:12:26;;;;;;;;;1.00;0.00;;;;;;;;6335986;22;45462;-85
2023/03/30 13:15:03;;;;;;;;;0.75;0.75;;;;;;;;6334221;22;48086;-86
2023/03/30 13:17:47;;;;;;;;;0.50;0.00;;;;;;;;6334483;22;45556;-85
2023/03/30 13:20:17;;;;;;;;;3.00;0.00;;;;;;;;6335940;22;45371;-85
2023/03/30 13:22:57;;;;;;;;;0.50;0.50;;;;;;;;6335768;22;45471;-87
2023/03/30 13:25:25;;;;;;;;;0.00;0.00;;;;;;;;6335776;22;45534;-86
2023/03/30 13:27:51;;;;;;;;;1.00;0.00;;;;;;;;6336925;22;45545;-86
2023/03/30 13:30:17;;;;;;;;;0.00;0.00;;;;;;;;6335117;22;45878;-86
2023/03/30 13:33:03;;;;;;;;;0.00;0.00;;;;;;;;6335793;22;45240;-86
2023/03/30 13:35:31;;;;;;;;;2.25;0.00;;;;;;;;6336170;22;45493;-85
2023/03/30 13:38:00;;;;;;;;;0.00;0.00;;;;;;;;6335606;22;45347;-88
2023/03/30 13:40:27;;;;;;;;;0.00;0.00;;;;;;;;6334397;22;45323;-85
2023/03/30 13:42:55;;;;;;;;;0.00;0.00;;;;;;;;6336290;22;45363;-85
2023/03/30 13:45:23;;;;;;;;;2.00;1.00;;;;;;;;6335168;22;45394;-85
2023/03/30 13:47:48;;;;;;;;;0.00;0.00;;;;;;;;6335849;22;45631;-85
2023/03/30 13:50:22;;;;;;;;;2.00;0.00;;;;;;;;6335342;22;45371;-86
2023/03/30 13:52:49;;;;;;;;;0.75;0.00;;;;;;;;6335471;22;45500;-86
2023/03/30 13:55:27;;;;;;;;;1.50;0.00;;;;;;;;6334913;22;45414;-85
2023/03/30 13:58:12;;;;;;;;;0.00;0.00;;;;;;;;6335880;22;45623;-85
2023/03/30 14:00:43;;;;;;;;;0.00;0.00;;;;;;;;6336006;22;45276;-86
2023/03/30 14:03:24;;;;;;;;;0.00;0.00;;;;;;;;6333482;22;45416;-87
2023/03/30 14:05:51;;;;;;;;;0.00;0.00;;;;;;;;6335163;22;46552;-86
2023/03/30 14:08:17;;;;;;;;;0.00;0.00;;;;;;;;6335137;22;45648;-86
2023/03/30 14:10:45;;;;;;;;;0.00;0.00;;;;;;;;6335903;22;45280;-85
2023/03/30 14:13:11;;;;;;;;;0.00;0.00;;;;;;;;6335532;22;45449;-83
2023/03/30 14:15:37;;;;;;;;;0.00;0.00;;;;;;;;6335906;22;46283;-85
2023/03/30 14:18:04;;;;;;;;;0.00;0.00;;;;;;;;6333101;22;45664;-83
2023/03/30 14:20:29;;;;;;;;;0.25;0.00;;;;;;;;6334566;22;45292;-84
2023/03/30 14:22:57;;;;;;;;;1.67;0.00;;;;;;;;6333602;22;45431;-85
2023/03/30 14:25:32;;;;;;;;;1.00;0.00;;;;;;;;6332729;22;45304;-85
2023/03/30 14:28:17;;;;;;;;;1.00;0.00;;;;;;;;6335029;22;45283;-84
2023/03/30 14:30:50;;;;;;;;;0.00;0.00;;;;;;;;6331998;22;45368;-83
2023/03/30 14:33:17;;;;;;;;;2.25;0.00;;;;;;;;6328173;22;45715;-86
2023/03/30 14:35:45;;;;;;;;;1.00;0.25;;;;;;;;6334224;22;46581;-84
2023/03/30 14:38:13;;;;;;;;;0.75;0.00;;;;;;;;6324574;22;45458;-82
2023/03/30 14:40:39;;;;;;;;;1.00;0.00;;;;;;;;6323832;22;45411;-84
2023/03/30 14:43:05;;;;;;;;;1.50;0.00;;;;;;;;6332497;22;45641;-84
2023/03/30 14:45:32;;;;;;;;;0.00;0.00;;;;;;;;6330543;22;47297;-85
2023/03/30 14:47:57;;;;;;;;;4.25;1.00;;;;;;;;6331592;22;45237;-86
2023/03/30 14:50:22;;;;;;;;;1.00;0.00;;;;;;;;6329690;22;45250;-82
2023/03/30 14:52:48;;;;;;;;;1.00;0.00;;;;;;;;6332553;22;45504;-81
2023/03/30 14:55:17;;;;;;;;;1.00;0.50;;;;;;;;6335055;22;46174;-80
2023/03/30 14:57:43;;;;;;;;;1.00;1.00;;;;;;;;6335292;22;45261;-81
2023/03/30 15:00:19;;;;;;;;;0.00;0.00;;;;;;;;6334988;22;45284;-81
2023/03/30 15:02:46;;;;;;;;;2.00;1.00;;;;;;;;6335434;22;45373;-83